Time;durP1;ratioP1;P1;durP2;ratioP2;P2;SDS_P1;SDS_P2;PMS_P1;PMS_P2;Temp;Humidity;BMP_temperature;BMP_pressure;BME280_temperature;BME280_humidity;BME280_pressure;Samples;Min_cycle;Max_cycle;Signal;HPM_P1;HPM_P2
2023/07/12 00:01:30;;;;;;;15.10;2.75;;;15.50;99.90;;;;;;4892519;29;20040;-91
2023/07/12 00:03:56;;;;;;;12.77;2.47;;;15.50;99.90;;;;;;4911595;29;20039;-90
2023/07/12 00:06:37;;;;;;;11.95;2.40;;;15.40;99.90;;;;;;4910238;29;20037;-90
2023/07/12 00:09:05;;;;;;;12.32;2.30;;;15.40;99.90;;;;;;4910788;29;20036;-88
2023/07/12 00:11:30;;;;;;;12.18;2.28;;;15.40;99.90;;;;;;4909916;29;20119;-89
2023/07/12 00:13:56;;;;;;;17.90;2.50;;;15.40;99.90;;;;;;4909422;29;20064;-90
2023/07/12 00:16:22;;;;;;;10.68;2.30;;;15.30;99.90;;;;;;4907998;29;20606;-90
2023/07/12 00:18:47;;;;;;;11.40;2.38;;;15.30;99.90;;;;;;4908997;29;20155;-90
2023/07/12 00:21:22;;;;;;;12.40;2.53;;;15.20;99.90;;;;;;4908291;29;20103;-91
2023/07/12 00:23:50;;;;;;;13.07;2.30;;;15.20;99.90;;;;;;4892832;29;20033;-91
2023/07/12 00:26:29;;;;;;;12.45;2.88;;;15.20;99.90;;;;;;4890896;29;20075;-91
2023/07/12 00:28:56;;;;;;;13.10;2.45;;;15.20;99.90;;;;;;4890677;29;20036;-90
2023/07/12 00:31:22;;;;;;;10.32;2.55;;;15.10;99.90;;;;;;4908759;29;20038;-88
2023/07/12 00:33:48;;;;;;;12.95;2.90;;;15.10;99.90;;;;;;4914443;29;20032;-90
2023/07/12 00:36:25;;;;;;;11.15;2.45;;;15.10;99.90;;;;;;4914393;29;20056;-91
2023/07/12 00:38:52;;;;;;;11.63;2.60;;;15.10;99.90;;;;;;4900850;29;20032;-89
2023/07/12 00:41:31;;;;;;;13.75;2.38;;;15.00;99.90;;;;;;4914645;29;20036;-92
2023/07/12 00:44:10;;;;;;;8.98;2.10;;;15.00;99.90;;;;;;4896164;29;20044;-90
2023/07/12 00:46:41;;;;;;;10.82;2.30;;;15.00;99.90;;;;;;4912794;29;20476;-90
2023/07/12 00:49:10;;;;;;;10.30;2.58;;;14.90;99.90;;;;;;4914927;29;20036;-90
2023/07/12 00:51:52;;;;;;;11.68;2.70;;;14.80;99.90;;;;;;4914664;29;20032;-90
2023/07/12 00:54:20;;;;;;;9.43;2.08;;;14.80;99.90;;;;;;4910162;29;20036;-90
2023/07/12 00:56:46;;;;;;;16.17;2.53;;;14.80;99.90;;;;;;4913870;29;20092;-88
2023/07/12 00:59:34;;;;;;;14.30;2.90;;;14.80;99.90;;;;;;4913075;29;20050;-92
2023/07/12 01:02:02;;;;;;;12.82;2.90;;;14.80;99.90;;;;;;4913132;29;20459;-91
2023/07/12 01:04:40;;;;;;;12.75;2.42;;;14.70;99.90;;;;;;4910962;29;20033;-87
2023/07/12 01:07:06;;;;;;;14.90;2.95;;;14.70;99.90;;;;;;4913228;29;20024;-91
2023/07/12 01:09:32;;;;;;;10.95;2.60;;;14.60;99.90;;;;;;4914013;29;20741;-90
2023/07/12 01:11:59;;;;;;;13.57;2.42;;;14.60;99.90;;;;;;4913311;29;20040;-91
2023/07/12 01:14:26;;;;;;;11.65;2.60;;;14.50;99.90;;;;;;4911166;29;20055;-90
2023/07/12 01:16:57;;;;;;;9.13;2.50;;;14.50;99.90;;;;;;4898855;29;20043;-91
2023/07/12 01:19:22;;;;;;;;;;;14.40;99.90;;;;;;4915499;29;20024;-89
2023/07/12 01:21:50;;;;;;;8.77;2.40;;;14.40;99.90;;;;;;4904302;29;20383;-89
2023/07/12 01:24:16;;;;;;;11.00;2.35;;;14.40;99.90;;;;;;4908883;29;20033;-89
2023/07/12 01:26:51;;;;;;;13.52;3.03;;;14.30;99.90;;;;;;4894628;29;20057;-90
2023/07/12 01:29:17;;;;;;;14.50;2.47;;;14.30;99.90;;;;;;4895055;29;20028;-90
2023/07/12 01:31:44;;;;;;;15.63;2.40;;;14.30;99.90;;;;;;4904122;29;20349;-89
2023/07/12 01:34:10;;;;;;;9.27;2.30;;;14.20;99.90;;;;;;4910883;29;20504;-88
2023/07/12 01:36:37;;;;;;;12.73;2.28;;;14.20;99.90;;;;;;4909929;29;20088;-90
2023/07/12 01:39:04;;;;;;;14.13;2.47;;;14.10;99.90;;;;;;4911829;29;20032;-88
2023/07/12 01:41:30;;;;;;;10.65;2.35;;;14.10;99.90;;;;;;4908485;29;20032;-90
2023/07/12 01:43:57;;;;;;;11.32;2.63;;;14.00;99.90;;;;;;4912473;29;20082;-84
2023/07/12 01:46:23;;;;;;;17.33;2.90;;;14.00;99.90;;;;;;4912802;29;20028;-89
2023/07/12 01:48:49;;;;;;;14.98;2.78;;;14.00;99.90;;;;;;4910489;29;20040;-90
2023/07/12 01:51:16;;;;;;;13.70;2.35;;;14.00;99.90;;;;;;4911312;29;20400;-86
2023/07/12 01:53:41;;;;;;;13.93;2.85;;;14.00;99.90;;;;;;4913507;29;20042;-89
2023/07/12 01:56:09;;;;;;;11.60;2.40;;;14.00;99.90;;;;;;4927325;29;20063;-89
2023/07/12 01:58:35;;;;;;;11.00;2.50;;;14.00;99.90;;;;;;4909294;29;20795;-89
2023/07/12 02:01:00;;;;;;;11.20;2.33;;;14.00;99.90;;;;;;4908860;29;20063;-90
2023/07/12 02:03:26;;;;;;;8.07;1.95;;;14.00;99.90;;;;;;4912915;29;20075;-87
2023/07/12 02:05:53;;;;;;;8.70;2.33;;;14.00;99.90;;;;;;4912488;29;20551;-90
2023/07/12 02:08:19;;;;;;;11.80;2.47;;;13.90;99.90;;;;;;4912928;29;20420;-89
2023/07/12 02:10:44;;;;;;;10.20;1.98;;;13.90;99.90;;;;;;4913908;29;20083;-89
2023/07/12 02:13:10;;;;;;;11.10;2.60;;;13.80;99.90;;;;;;4910766;29;20161;-87
2023/07/12 02:15:37;;;;;;;9.10;2.08;;;13.80;99.90;;;;;;4912091;29;20483;-86
2023/07/12 02:18:02;;;;;;;8.48;2.08;;;13.70;99.90;;;;;;4911404;29;20043;-89
2023/07/12 02:20:28;;;;;;;9.57;2.30;;;13.70;99.90;;;;;;4906177;29;20984;-90
2023/07/12 02:22:54;;;;;;;8.00;2.35;;;13.70;99.90;;;;;;4893290;29;20044;-90
2023/07/12 02:25:20;;;;;;;6.20;1.77;;;13.70;99.90;;;;;;4893892;29;20032;-89
2023/07/12 02:27:47;;;;;;;9.25;2.35;;;13.70;99.90;;;;;;4893327;29;20152;-89
2023/07/12 02:30:22;;;;;;;8.55;2.35;;;13.70;99.90;;;;;;4910804;29;20048;-88
2023/07/12 02:32:49;;;;;;;7.85;2.40;;;13.80;99.90;;;;;;4913253;29;20072;-89
2023/07/12 02:35:16;;;;;;;5.07;1.75;;;13.80;99.90;;;;;;4912454;29;20048;-89
2023/07/12 02:37:42;;;;;;;7.35;1.83;;;13.80;99.90;;;;;;4912709;29;20059;-89
2023/07/12 02:40:09;;;;;;;5.65;1.90;;;13.70;99.90;;;;;;4908070;29;20458;-86
2023/07/12 02:42:35;;;;;;;9.30;2.03;;;13.70;99.90;;;;;;4908376;29;20045;-89
2023/07/12 02:45:01;;;;;;;5.97;2.13;;;13.70;99.90;;;;;;4893261;29;20045;-86
2023/07/12 02:47:26;;;;;;;16.88;2.30;;;13.70;99.90;;;;;;4908154;29;20060;-88
2023/07/12 02:49:52;;;;;;;9.45;2.25;;;13.70;99.90;;;;;;4911177;29;20530;-87
2023/07/12 02:52:17;;;;;;;5.72;2.10;;;13.70;99.90;;;;;;4909217;29;20042;-88
2023/07/12 02:54:43;;;;;;;5.00;2.05;;;13.70;99.90;;;;;;4910853;29;20500;-86
2023/07/12 02:57:11;;;;;;;10.23;2.38;;;13.70;99.90;;;;;;4916744;29;20078;-88
2023/07/12 02:59:37;;;;;;;9.65;2.35;;;13.70;99.90;;;;;;4911045;29;20404;-87
2023/07/12 03:02:03;;;;;;;8.68;2.42;;;13.70;99.90;;;;;;4910589;29;20043;-87
2023/07/12 03:04:29;;;;;;;8.52;1.88;;;13.60;99.90;;;;;;4911625;29;20062;-83
2023/07/12 03:06:55;;;;;;;8.45;2.13;;;13.50;99.90;;;;;;4909731;29;20024;-88
2023/07/12 03:09:21;;;;;;;11.60;2.25;;;13.50;99.90;;;;;;4911718;29;20535;-90
2023/07/12 03:11:47;;;;;;;7.15;1.98;;;13.50;99.90;;;;;;4911483;29;20044;-88
2023/07/12 03:14:18;;;;;;;7.68;2.03;;;13.40;99.90;;;;;;4911385;29;20110;-88
2023/07/12 03:16:45;;;;;;;9.38;2.28;;;13.40;99.90;;;;;;4909867;29;20032;-88
2023/07/12 03:19:11;;;;;;;9.80;1.92;;;13.40;99.90;;;;;;4901514;29;20055;-88
2023/07/12 03:21:36;;;;;;;8.50;2.30;;;13.30;99.90;;;;;;4904406;29;20043;-89
2023/07/12 03:24:02;;;;;;;7.43;2.03;;;13.40;99.90;;;;;;4912518;29;20095;-89
2023/07/12 03:26:28;;;;;;;6.05;2.10;;;13.40;99.90;;;;;;4909316;29;20118;-89
2023/07/12 03:28:55;;;;;;;11.05;2.22;;;13.30;99.90;;;;;;4910417;29;20610;-88
2023/07/12 03:31:22;;;;;;;9.00;2.40;;;13.40;99.90;;;;;;4910850;29;20080;-85
2023/07/12 03:33:47;;;;;;;9.10;2.17;;;13.30;99.90;;;;;;4909100;29;20574;-87
2023/07/12 03:36:14;;;;;;;5.18;1.85;;;13.30;99.90;;;;;;4910871;29;20232;-87
2023/07/12 03:38:40;;;;;;;6.70;1.88;;;13.30;99.90;;;;;;4911260;29;20115;-86
2023/07/12 03:41:08;;;;;;;6.10;1.98;;;13.30;99.90;;;;;;4909476;29;20191;-87
2023/07/12 03:43:35;;;;;;;6.25;1.90;;;13.30;99.90;;;;;;4906020;29;20047;-86
2023/07/12 03:46:01;;;;;;;6.28;1.80;;;13.30;99.90;;;;;;4909461;29;20047;-89
2023/07/12 03:48:26;;;;;;;10.60;2.17;;;13.20;99.90;;;;;;4909345;29;20036;-88
2023/07/12 03:50:55;;;;;;;7.72;2.20;;;13.20;99.90;;;;;;4909357;29;20659;-87
2023/07/12 03:53:21;;;;;;;5.85;1.80;;;13.20;99.90;;;;;;4908234;29;20115;-91
2023/07/12 03:55:48;;;;;;;6.20;2.00;;;13.20;99.90;;;;;;4924870;29;20559;-86
2023/07/12 03:58:20;;;;;;;5.60;2.17;;;13.20;99.90;;;;;;4899847;29;20032;-88
2023/07/12 04:00:48;;;;;;;7.88;2.25;;;13.20;99.90;;;;;;4909257;29;20079;-88
2023/07/12 04:03:14;;;;;;;7.20;1.90;;;13.20;99.90;;;;;;4907831;29;20049;-89
2023/07/12 04:05:42;;;;;;;9.43;2.00;;;13.20;99.90;;;;;;4909135;29;20039;-90
2023/07/12 04:08:09;;;;;;;5.60;1.83;;;13.20;99.90;;;;;;4909512;29;20102;-87
2023/07/12 04:10:35;;;;;;;5.90;2.17;;;13.20;99.90;;;;;;4899271;29;20028;-87
2023/07/12 04:13:02;;;;;;;5.15;1.88;;;13.20;99.90;;;;;;4890267;29;20037;-86
2023/07/12 04:15:28;;;;;;;6.15;2.28;;;13.20;99.90;;;;;;4893993;29;20043;-87
2023/07/12 04:17:53;;;;;;;5.53;2.15;;;13.20;99.90;;;;;;4909526;29;20139;-87
2023/07/12 04:20:19;;;;;;;4.80;1.75;;;13.20;99.90;;;;;;4907149;29;20032;-87
2023/07/12 04:22:52;;;;;;;4.68;1.60;;;13.20;99.90;;;;;;4907662;29;20047;-87
2023/07/12 04:25:18;;;;;;;7.30;2.00;;;13.20;99.90;;;;;;4908577;29;20054;-88
2023/07/12 04:27:44;;;;;;;6.00;1.92;;;13.20;99.90;;;;;;4907480;29;20084;-87
2023/07/12 04:30:12;;;;;;;6.50;1.85;;;13.20;99.90;;;;;;4909730;29;20036;-87
2023/07/12 04:32:38;;;;;;;5.45;1.92;;;13.30;99.90;;;;;;4925014;29;20040;-86
2023/07/12 04:35:04;;;;;;;8.50;1.90;;;13.30;99.90;;;;;;4915279;29;20043;-86
2023/07/12 04:37:31;;;;;;;5.10;1.67;;;13.30;99.90;;;;;;4910603;29;20064;-86
2023/07/12 04:39:56;;;;;;;4.60;1.88;;;13.30;99.90;;;;;;4909774;29;20032;-84
2023/07/12 04:42:22;;;;;;;6.90;1.95;;;13.40;99.90;;;;;;4899309;29;20074;-86
2023/07/12 04:44:48;;;;;;;3.47;1.50;;;13.40;99.90;;;;;;4891244;29;20235;-87
2023/07/12 04:47:17;;;;;;;4.75;1.70;;;13.40;99.90;;;;;;4905918;29;20043;-87
2023/07/12 04:49:43;;;;;;;7.20;1.80;;;13.50;99.90;;;;;;4909974;29;20473;-86
2023/07/12 04:52:11;;;;;;;6.00;2.13;;;13.50;99.90;;;;;;4910024;29;20123;-87
2023/07/12 04:54:39;;;;;;;5.13;1.85;;;13.50;99.90;;;;;;4908791;29;20035;-86
2023/07/12 04:57:05;;;;;;;5.93;1.90;;;13.60;99.90;;;;;;4905397;29;20043;-86
2023/07/12 04:59:31;;;;;;;5.32;2.00;;;13.60;99.90;;;;;;4909224;29;20032;-87
2023/07/12 05:01:56;;;;;;;9.05;2.10;;;13.70;99.90;;;;;;4909270;29;20099;-85
2023/07/12 05:04:22;;;;;;;6.10;1.70;;;13.80;99.90;;;;;;4907425;29;20059;-86
2023/07/12 05:06:48;;;;;;;4.05;1.88;;;13.80;99.90;;;;;;4908175;29;20084;-88
2023/07/12 05:09:13;;;;;;;7.13;2.05;;;13.90;99.90;;;;;;4891653;29;20044;-85
2023/07/12 05:11:39;;;;;;;7.45;2.17;;;13.90;99.90;;;;;;4904669;29;20028;-87
2023/07/12 05:14:04;;;;;;;5.53;2.05;;;14.00;99.90;;;;;;4916842;29;20115;-87
2023/07/12 05:16:30;;;;;;;8.65;2.60;;;14.10;99.90;;;;;;4909835;29;20032;-85
2023/07/12 05:18:56;;;;;;;5.70;1.83;;;14.10;99.90;;;;;;4895978;29;20068;-89
2023/07/12 05:21:23;;;;;;;7.82;1.77;;;14.20;99.90;;;;;;4911482;29;20558;-87
2023/07/12 05:23:49;;;;;;;8.10;1.88;;;14.20;99.90;;;;;;4913132;29;20028;-85
2023/07/12 05:26:15;;;;;;;6.57;1.90;;;14.30;99.90;;;;;;4915331;29;20028;-85
2023/07/12 05:28:41;;;;;;;7.45;1.70;;;14.40;99.90;;;;;;4906790;29;20043;-86
2023/07/12 05:31:07;;;;;;;7.60;1.70;;;14.50;99.90;;;;;;4916534;29;20028;-84
2023/07/12 05:33:33;;;;;;;4.68;1.83;;;14.50;99.90;;;;;;4898456;29;20036;-86
2023/07/12 05:36:01;;;;;;;4.90;1.77;;;14.60;99.90;;;;;;4911335;29;20124;-87
2023/07/12 05:38:27;;;;;;;5.70;2.00;;;14.70;99.90;;;;;;4915683;29;20028;-87
2023/07/12 05:40:53;;;;;;;6.28;1.80;;;14.70;99.90;;;;;;4913194;29;20059;-87
2023/07/12 05:43:23;;;;;;;5.70;1.65;;;14.80;99.90;;;;;;4911888;29;20082;-82
2023/07/12 05:45:49;;;;;;;7.78;1.80;;;14.90;99.90;;;;;;4911267;29;20040;-88
2023/07/12 05:48:14;;;;;;;7.18;1.65;;;15.00;99.90;;;;;;4910031;29;20051;-85
2023/07/12 05:50:40;;;;;;;5.90;2.00;;;15.10;99.90;;;;;;4910353;29;20036;-86
2023/07/12 05:53:05;;;;;;;9.55;1.77;;;15.10;99.90;;;;;;4926860;29;20042;-86
2023/07/12 05:55:31;;;;;;;4.57;1.70;;;15.20;99.90;;;;;;4906108;29;20031;-88
2023/07/12 05:57:57;;;;;;;8.10;1.55;;;15.30;99.90;;;;;;4899872;29;20059;-86
2023/07/12 06:00:23;;;;;;;6.15;1.40;;;15.30;99.90;;;;;;4909056;29;20031;-86
2023/07/12 06:02:49;;;;;;;6.60;1.58;;;15.40;99.90;;;;;;4906027;29;20052;-87
2023/07/12 06:05:14;;;;;;;6.03;1.40;;;15.50;99.90;;;;;;4909192;29;20044;-86
2023/07/12 06:07:41;;;;;;;160.98;91.40;;;15.60;99.90;;;;;;4910100;29;20082;-87
2023/07/12 06:10:08;;;;;;;10.20;3.28;;;15.70;99.90;;;;;;4910380;29;20028;-87
2023/07/12 06:12:34;;;;;;;8.07;1.85;;;15.80;99.90;;;;;;4910895;29;20038;-91
2023/07/12 06:14:59;;;;;;;8.57;1.92;;;15.80;99.90;;;;;;4913480;29;20517;-88
2023/07/12 06:17:25;;;;;;;6.43;2.10;;;15.90;99.90;;;;;;4912122;29;20074;-87
2023/07/12 06:19:50;;;;;;;6.60;1.70;;;16.00;99.90;;;;;;4903749;29;20037;-85
2023/07/12 06:22:16;;;;;;;6.63;1.50;;;16.10;99.90;;;;;;4906257;29;20600;-87
2023/07/12 06:24:42;;;;;;;12.05;6.05;;;16.20;99.90;;;;;;4909102;29;20024;-88
2023/07/12 06:27:07;;;;;;;8.27;3.35;;;16.40;99.90;;;;;;4905303;29;20032;-86
2023/07/12 06:29:33;;;;;;;10.55;1.80;;;16.60;99.90;;;;;;4905120;29;20020;-85
2023/07/12 06:31:58;;;;;;;4.63;1.60;;;16.80;99.90;;;;;;4900325;29;20048;-88
2023/07/12 06:34:24;;;;;;;6.40;1.75;;;16.90;99.90;;;;;;4900828;29;20032;-87
2023/07/12 06:36:50;;;;;;;7.88;1.60;;;17.00;99.90;;;;;;4901678;29;20068;-85
2023/07/12 06:39:16;;;;;;;8.30;1.80;;;17.10;99.90;;;;;;4901768;29;20146;-89
2023/07/12 06:41:42;;;;;;;24.75;12.50;;;17.20;99.90;;;;;;4905454;29;20064;-88
2023/07/12 06:44:07;;;;;;;5.95;1.60;;;17.30;99.90;;;;;;4909003;29;20066;-89
2023/07/12 06:46:33;;;;;;;7.05;1.58;;;17.30;99.90;;;;;;4911039;29;20028;-88
2023/07/12 06:48:58;;;;;;;7.32;1.85;;;17.40;99.90;;;;;;4909281;29;20040;-90
2023/07/12 06:51:24;;;;;;;6.03;1.50;;;17.40;99.90;;;;;;4905921;29;20135;-93
2023/07/12 06:53:50;;;;;;;4.72;1.50;;;17.50;99.90;;;;;;4908254;29;20219;-90
2023/07/12 06:56:15;;;;;;;7.15;1.77;;;17.60;99.90;;;;;;4909192;29;20210;-90
2023/07/12 06:58:41;;;;;;;11.85;3.20;;;17.70;99.90;;;;;;4908667;29;20058;-88
2023/07/12 07:01:10;;;;;;;6.68;1.60;;;17.60;99.90;;;;;;4909348;29;20032;-89
2023/07/12 07:03:36;;;;;;;5.97;1.48;;;17.70;99.90;;;;;;4908140;29;20054;-87
2023/07/12 07:06:02;;;;;;;4.53;1.48;;;17.70;99.90;;;;;;4907073;29;20028;-90
2023/07/12 07:08:29;;;;;;;6.38;1.23;;;17.70;99.90;;;;;;4915054;29;20028;-92
2023/07/12 07:10:56;;;;;;;7.97;1.95;;;17.70;99.90;;;;;;4914369;29;20027;-89
2023/07/12 07:13:23;;;;;;;6.15;1.98;;;17.90;99.90;;;;;;4911244;29;20575;-90
2023/07/12 07:15:49;;;;;;;5.55;1.73;;;18.10;99.90;;;;;;4911725;29;20047;-91
2023/07/12 07:18:15;;;;;;;6.93;1.23;;;18.10;99.90;;;;;;4911809;29;20027;-87
2023/07/12 07:20:41;;;;;;;7.15;2.30;;;18.20;99.90;;;;;;4910306;29;20846;-87
2023/07/12 07:23:08;;;;;;;6.00;1.67;;;18.40;99.90;;;;;;4911462;29;20897;-87
2023/07/12 07:25:33;;;;;;;5.80;1.48;;;18.40;99.90;;;;;;4910395;29;20107;-85
2023/07/12 07:27:59;;;;;;;6.78;1.48;;;18.60;99.90;;;;;;4912711;29;20086;-88
2023/07/12 07:30:24;;;;;;;5.65;1.35;;;18.90;99.90;;;;;;4905290;29;20421;-87
2023/07/12 07:32:53;;;;;;;6.47;1.55;;;19.30;99.90;;;;;;4897807;29;20069;-87
2023/07/12 07:35:18;;;;;;;6.97;1.63;;;19.90;99.90;;;;;;4911021;29;20083;-86
2023/07/12 07:37:47;;;;;;;5.38;1.40;;;21.30;99.90;;;;;;4911264;29;20467;-87
2023/07/12 07:40:12;;;;;;;5.65;1.40;;;22.70;99.90;;;;;;4911862;29;20028;-89
2023/07/12 07:42:38;;;;;;;5.13;1.20;;;23.90;99.90;;;;;;4911159;29;20044;-91
2023/07/12 07:45:04;;;;;;;7.20;1.45;;;24.50;99.90;;;;;;4907944;29;20040;-90
2023/07/12 07:47:29;;;;;;;3.38;1.00;;;25.20;97.30;;;;;;4907390;29;20066;-89
2023/07/12 07:49:55;;;;;;;3.17;1.15;;;26.80;93.70;;;;;;4895757;29;20075;-89
2023/07/12 07:52:21;;;;;;;5.90;1.30;;;28.50;83.20;;;;;;4924177;29;20036;-89
2023/07/12 07:54:46;;;;;;;3.72;0.88;;;30.80;71.70;;;;;;4922793;29;20131;-89
2023/07/12 07:57:12;;;;;;;7.43;1.25;;;32.20;62.40;;;;;;4906621;29;20067;-89
2023/07/12 07:59:38;;;;;;;5.13;1.42;;;33.50;57.70;;;;;;4910589;29;20348;-90
2023/07/12 08:02:04;;;;;;;4.90;1.27;;;33.50;55.10;;;;;;4906459;29;20104;-91
2023/07/12 08:04:31;;;;;;;4.03;1.27;;;33.30;54.20;;;;;;4911035;29;20016;-87
2023/07/12 08:06:56;;;;;;;6.38;1.17;;;34.30;51.50;;;;;;4902616;29;20036;-89
2023/07/12 08:09:22;;;;;;;4.75;1.20;;;35.60;48.50;;;;;;4909687;29;20083;-90
2023/07/12 08:11:48;;;;;;;4.97;1.17;;;36.00;45.70;;;;;;4907416;29;20766;-86
2023/07/12 08:14:14;;;;;;;7.47;1.55;;;35.80;45.10;;;;;;4911138;29;20040;-86
2023/07/12 08:16:40;;;;;;;5.03;1.33;;;35.80;44.30;;;;;;4908677;29;20035;-85
2023/07/12 08:19:05;;;;;;;7.72;1.42;;;36.80;45.20;;;;;;4903391;29;20040;-85
2023/07/12 08:21:31;;;;;;;4.82;1.10;;;37.30;43.20;;;;;;4901334;29;20103;-83
2023/07/12 08:23:57;;;;;;;5.13;0.85;;;38.00;42.90;;;;;;4903973;29;20056;-84
2023/07/12 08:26:23;;;;;;;4.60;0.90;;;37.70;41.40;;;;;;4903762;29;20547;-83
2023/07/12 08:28:49;;;;;;;4.80;1.20;;;37.80;41.10;;;;;;4907168;29;20059;-82
2023/07/12 08:31:15;;;;;;;3.67;1.20;;;37.40;41.60;;;;;;4899756;29;20028;-87
2023/07/12 08:33:43;;;;;;;2.92;0.80;;;36.90;41.60;;;;;;4906095;29;20115;-85
2023/07/12 08:36:09;;;;;;;3.28;0.85;;;36.80;40.70;;;;;;4902570;29;20044;-87
2023/07/12 08:38:35;;;;;;;3.65;0.95;;;35.20;41.30;;;;;;4913395;29;20036;-89
2023/07/12 08:41:00;;;;;;;2.92;1.08;;;34.30;44.60;;;;;;4897838;29;20136;-86
2023/07/12 08:43:32;;;;;;;4.57;1.02;;;32.80;45.30;;;;;;4892649;29;20373;-84
2023/07/12 08:46:13;;;;;;;7.22;0.95;;;33.10;48.10;;;;;;4899829;29;20208;-85
2023/07/12 08:48:38;;;;;;;4.88;1.20;;;34.80;43.20;;;;;;4898191;29;20036;-85
2023/07/12 08:51:13;;;;;;;8.93;1.27;;;34.90;42.90;;;;;;4906433;29;20031;-86
2023/07/12 08:58:52;;;;;;;3.78;1.15;;;32.00;46.20;;;;;;5897155;23;20042;-83
2023/07/12 09:01:43;;;;;;;2.83;1.00;;;29.90;47.40;;;;;;4915449;29;20040;-84
2023/07/12 09:04:21;;;;;;;3.67;1.00;;;28.00;51.50;;;;;;4928243;29;20043;-83
2023/07/12 09:06:48;;;;;;;3.50;0.85;;;26.50;55.50;;;;;;4921340;29;20098;-83
2023/07/12 09:09:14;;;;;;;7.65;1.40;;;25.40;60.70;;;;;;4924168;29;20024;-82
2023/07/12 09:11:39;;;;;;;5.05;1.27;;;25.40;67.70;;;;;;4912187;29;20115;-82
2023/07/12 09:14:05;;;;;;;4.22;1.00;;;28.10;69.10;;;;;;4918341;29;20684;-83
2023/07/12 09:16:33;;;;;;;7.15;1.25;;;31.40;57.70;;;;;;4920273;29;20047;-82
2023/07/12 09:19:14;;;;;;;4.28;1.10;;;34.60;47.40;;;;;;4927329;29;20703;-83
2023/07/12 09:21:39;;;;;;;4.50;1.30;;;36.10;44.10;;;;;;4922754;29;20770;-79
2023/07/12 09:24:12;;;;;;;5.43;1.42;;;38.50;40.30;;;;;;4913328;29;20074;-82
2023/07/12 09:26:37;;;;;;;5.53;1.10;;;38.60;37.80;;;;;;4908764;29;20056;-82
2023/07/12 09:29:06;;;;;;;5.60;1.30;;;38.20;39.80;;;;;;4915339;29;20441;-84
2023/07/12 09:31:34;;;;;;;5.53;1.00;;;37.70;41.30;;;;;;4924443;29;20020;-84
2023/07/12 09:34:06;;;;;;;5.28;0.85;;;35.60;41.80;;;;;;4920013;29;20059;-82
2023/07/12 09:36:38;;;;;;;69.47;36.15;;;34.10;42.40;;;;;;4909778;29;20404;-84
2023/07/12 09:39:05;;;;;;;10.45;1.35;;;32.30;43.80;;;;;;4917238;29;20036;-81
2023/07/12 09:41:31;;;;;;;11.27;1.52;;;30.10;49.50;;;;;;4924187;29;20530;-80
2023/07/12 09:43:59;;;;;;;9.13;1.58;;;27.30;57.60;;;;;;4925981;29;20078;-81
2023/07/12 09:46:42;;;;;;;8.00;1.63;;;25.60;68.80;;;;;;4911900;29;20036;-83
2023/07/12 09:49:20;;;;;;;10.68;1.45;;;24.30;96.90;;;;;;4926596;29;20106;-81
2023/07/12 09:52:04;;;;;;;7.00;1.80;;;24.60;96.70;;;;;;4926756;29;20075;-82
2023/07/12 09:54:40;;;;;;;8.68;1.30;;;24.10;95.80;;;;;;4929157;29;20098;-83
2023/07/12 09:57:17;;;;;;;7.45;1.40;;;23.30;97.90;;;;;;4927220;29;20073;-84
2023/07/12 10:00:05;;;;;;;8.60;1.50;;;22.80;99.10;;;;;;4921157;29;20067;-82
2023/07/12 10:02:44;;;;;;;7.72;1.30;;;26.30;98.20;;;;;;4925777;29;20032;-83
2023/07/12 10:05:18;;;;;;;6.20;1.35;;;31.10;76.70;;;;;;4919646;29;20038;-82
2023/07/12 10:08:05;;;;;;;6.38;1.45;;;35.40;56.60;;;;;;4922179;29;20137;-82
2023/07/12 10:10:42;;;;;;;7.10;1.70;;;38.50;50.60;;;;;;4927855;29;20032;-84
2023/07/12 10:13:34;;;;;;;4.90;1.05;;;40.60;40.00;;;;;;4948525;28;20058;-82
2023/07/12 10:16:00;;;;;;;7.25;1.20;;;41.60;37.00;;;;;;4949082;29;20043;-80
2023/07/12 10:18:30;;;;;;;5.68;1.30;;;41.20;36.90;;;;;;4930402;29;20039;-84
2023/07/12 10:20:56;;;;;;;5.55;1.15;;;39.90;37.70;;;;;;4927210;29;20114;-84
2023/07/12 10:23:30;;;;;;;5.45;1.08;;;39.90;41.00;;;;;;4922481;29;20099;-83
2023/07/12 10:25:59;;;;;;;5.35;1.20;;;37.90;40.00;;;;;;4923774;29;20024;-81
2023/07/12 10:28:42;;;;;;;5.68;1.13;;;36.30;40.30;;;;;;4928071;29;20580;-82
2023/07/12 10:31:36;;;;;;;5.03;1.42;;;34.00;43.70;;;;;;4924548;29;20046;-83
2023/07/12 10:34:34;;;;;;;7.70;1.60;;;31.60;48.20;;;;;;4920128;29;20154;-81
2023/07/12 10:37:22;;;;;;;4.47;1.17;;;33.30;48.70;;;;;;4926064;29;20043;-85
2023/07/12 10:39:49;;;;;;;4.72;1.15;;;35.00;46.00;;;;;;4922622;29;20043;-83
2023/07/12 10:42:34;;;;;;;6.10;1.23;;;36.50;41.70;;;;;;4926114;29;20111;-83
2023/07/12 10:45:02;;;;;;;7.57;1.17;;;37.10;40.10;;;;;;4915417;29;20123;-82
2023/07/12 10:47:33;;;;;;;6.88;1.33;;;37.20;40.20;;;;;;4918907;29;20031;-83
2023/07/12 10:50:02;;;;;;;6.53;1.33;;;36.80;41.40;;;;;;4919087;29;20039;-81
2023/07/12 10:52:30;;;;;;;5.03;1.20;;;36.90;42.40;;;;;;4916109;29;20046;-83
2023/07/12 10:55:02;;;;;;;5.70;1.20;;;37.70;40.90;;;;;;4926524;29;20079;-83
2023/07/12 10:57:36;;;;;;;7.45;1.45;;;37.40;37.90;;;;;;4924391;29;20036;-85
2023/07/12 11:00:17;;;;;;;5.10;1.33;;;37.80;40.80;;;;;;4915556;29;21000;-83
2023/07/12 11:02:57;;;;;;;5.13;1.20;;;38.20;38.90;;;;;;4916221;29;20168;-84
2023/07/12 11:05:43;;;;;;;7.07;1.30;;;39.30;39.20;;;;;;4920919;29;20032;-82
2023/07/12 11:08:30;;;;;;;7.00;1.40;;;39.00;37.20;;;;;;4923390;29;20043;-82
2023/07/12 11:11:00;;;;;;;7.10;1.50;;;38.80;36.40;;;;;;4926376;29;20079;-80
2023/07/12 11:13:35;;;;;;;6.32;1.42;;;36.90;40.10;;;;;;4925082;29;20047;-80
2023/07/12 11:16:05;;;;;;;8.13;1.60;;;37.40;40.30;;;;;;4925134;29;20063;-82
2023/07/12 11:18:33;;;;;;;;;;;36.80;39.70;;;;;;4926443;29;20051;-80
2023/07/12 11:21:06;;;;;;;5.43;1.25;;;36.50;40.50;;;;;;4926291;29;20062;-83
2023/07/12 11:23:38;;;;;;;9.68;1.35;;;37.50;39.50;;;;;;4921076;29;20031;-84
2023/07/12 11:26:20;;;;;;;6.20;1.40;;;39.00;38.10;;;;;;4918730;29;20035;-82
2023/07/12 11:28:46;;;;;;;6.43;1.30;;;39.60;36.30;;;;;;4925621;29;20104;-80
2023/07/12 11:31:17;;;;;;;6.38;1.20;;;38.00;38.10;;;;;;4925919;29;20028;-83
2023/07/12 11:34:14;;;;;;;8.63;1.23;;;34.50;40.20;;;;;;4921672;29;20023;-82
2023/07/12 11:36:41;;;;;;;8.93;1.23;;;34.30;44.70;;;;;;4924147;29;20847;-83
2023/07/12 11:39:20;;;;;;;6.15;1.40;;;33.40;44.40;;;;;;4924638;29;20063;-81
2023/07/12 11:42:08;;;;;;;5.65;1.10;;;32.50;44.60;;;;;;4925557;29;20036;-82
2023/07/12 11:44:34;;;;;;;5.95;1.38;;;31.20;46.30;;;;;;4924979;29;20027;-81
2023/07/12 11:47:02;;;;;;;9.70;1.80;;;30.70;50.90;;;;;;4921733;29;20636;-80
2023/07/12 11:49:29;;;;;;;10.38;1.73;;;29.50;49.90;;;;;;4924251;29;20038;-83
2023/07/12 11:52:04;;;;;;;6.95;1.67;;;29.00;52.60;;;;;;4914553;29;20047;-81
2023/07/12 11:54:37;;;;;;;6.60;1.30;;;29.00;54.20;;;;;;4914675;29;20665;-80
2023/07/12 11:57:05;;;;;;;8.07;1.60;;;28.70;55.20;;;;;;4923752;29;20035;-83
2023/07/12 11:59:39;;;;;;;8.65;1.52;;;28.30;53.80;;;;;;4916448;29;20102;-81
2023/07/12 12:02:18;;;;;;;10.13;1.80;;;27.80;54.10;;;;;;4919640;29;20039;-80
2023/07/12 12:04:48;;;;;;;6.32;1.48;;;27.50;55.80;;;;;;4906402;29;20028;-80
2023/07/12 12:07:26;;;;;;;10.35;1.80;;;26.90;60.90;;;;;;4919360;29;20031;-82
2023/07/12 12:09:53;;;;;;;10.57;1.60;;;27.10;63.80;;;;;;4915635;29;20047;-83
2023/07/12 12:12:21;;;;;;;8.18;1.90;;;27.30;61.90;;;;;;4907698;29;20460;-80
2023/07/12 12:14:50;;;;;;;8.35;1.58;;;26.90;59.00;;;;;;4920433;29;20047;-81
2023/07/12 12:17:25;;;;;;;9.13;1.55;;;26.40;62.60;;;;;;4920280;29;20113;-82
2023/07/12 12:20:12;;;;;;;14.25;2.05;;;25.80;64.90;;;;;;4920381;29;20088;-81
2023/07/12 12:22:43;;;;;;;10.65;2.05;;;25.50;66.40;;;;;;4921724;29;20098;-80
2023/07/12 12:25:25;;;;;;;7.30;1.70;;;25.00;72.00;;;;;;4923092;29;20036;-80
2023/07/12 12:27:51;;;;;;;14.25;2.10;;;24.50;77.90;;;;;;4913567;29;20039;-80
2023/07/12 12:30:23;;;;;;;8.88;2.00;;;24.00;82.90;;;;;;4924464;29;20056;-82
2023/07/12 12:33:00;;;;;;;11.65;2.00;;;23.80;92.20;;;;;;4927802;29;20062;-81
2023/07/12 12:35:25;;;;;;;6.15;1.50;;;23.30;92.90;;;;;;4929149;29;20098;-79
2023/07/12 12:37:59;;;;;;;9.48;2.50;;;22.90;95.70;;;;;;4922058;29;20035;-79
2023/07/12 12:40:26;;;;;;;14.52;2.53;;;22.50;97.90;;;;;;4926380;29;20148;-82
2023/07/12 12:43:00;;;;;;;11.68;2.25;;;22.00;99.90;;;;;;4928346;29;20048;-78
2023/07/12 12:45:37;;;;;;;10.60;1.83;;;21.90;99.10;;;;;;4925620;29;20053;-80
2023/07/12 12:48:10;;;;;;;10.35;2.05;;;21.70;99.90;;;;;;4924191;29;20032;-83
2023/07/12 12:50:35;;;;;;;11.77;2.40;;;22.10;99.90;;;;;;4927145;29;20353;-84
2023/07/12 12:53:04;;;;;;;9.23;1.80;;;23.10;99.90;;;;;;4928420;29;20076;-82
2023/07/12 12:55:33;;;;;;;10.63;2.00;;;23.40;96.20;;;;;;4928101;29;20083;-80
2023/07/12 12:57:59;;;;;;;8.60;1.80;;;23.90;96.50;;;;;;4928572;29;20028;-79
2023/07/12 13:00:26;;;;;;;11.20;2.13;;;24.10;95.20;;;;;;4923587;29;20765;-79